Time;durP1;ratioP1;P1;durP2;ratioP2;P2;SDS_P1;SDS_P2;PMS_P1;PMS_P2;Temp;Humidity;BMP_temperature;BMP_pressure;BME280_temperature;BME280_humidity;BME280_pressure;Samples;Min_cycle;Max_cycle;Signal;HPM_P1;HPM_P2
2023/10/20 00:00:41;;;;;;;19.25;11.00;;;13.40;99.90;;;;;;5022887;28;20029;-78
2023/10/20 00:03:06;;;;;;;29.23;13.68;;;13.50;99.90;;;;;;5036643;28;20108;-78
2023/10/20 00:05:33;;;;;;;23.38;12.85;;;13.40;99.90;;;;;;5036195;28;20057;-78
2023/10/20 00:08:00;;;;;;;20.33;12.32;;;13.30;99.90;;;;;;5036854;28;20032;-77
2023/10/20 00:10:26;;;;;;;22.85;13.50;;;13.30;99.90;;;;;;5018816;28;20488;-78
2023/10/20 00:12:52;;;;;;;21.17;12.40;;;13.40;99.90;;;;;;5038260;28;20018;-78
2023/10/20 00:15:18;;;;;;;20.20;12.02;;;13.30;99.90;;;;;;5036470;28;20415;-78
2023/10/20 00:17:43;;;;;;;25.13;12.90;;;13.30;99.90;;;;;;5019073;28;20367;-79
2023/10/20 00:20:09;;;;;;;24.50;13.98;;;13.30;99.90;;;;;;5018145;28;20030;-78
2023/10/20 00:22:35;;;;;;;27.33;12.52;;;13.30;99.90;;;;;;5035987;28;20030;-78
2023/10/20 00:25:01;;;;;;;31.65;13.30;;;13.30;99.90;;;;;;5019096;28;20024;-78
2023/10/20 00:27:28;;;;;;;20.27;11.77;;;13.30;99.90;;;;;;5019430;28;20124;-78
2023/10/20 00:29:55;;;;;;;29.40;12.85;;;13.30;99.90;;;;;;5021659;28;20121;-78
2023/10/20 00:32:23;;;;;;;76.43;15.38;;;13.30;99.90;;;;;;5019322;28;20095;-78
2023/10/20 00:34:49;;;;;;;126.53;18.20;;;13.30;99.90;;;;;;5020401;28;20028;-77
2023/10/20 00:37:15;;;;;;;51.30;13.55;;;13.30;99.90;;;;;;5019346;28;20573;-77
2023/10/20 00:39:40;;;;;;;25.55;13.63;;;13.20;99.90;;;;;;5019201;28;20040;-78
2023/10/20 00:42:06;;;;;;;32.60;14.25;;;13.20;99.90;;;;;;5035471;28;20087;-78
2023/10/20 00:44:32;;;;;;;22.67;12.45;;;13.20;99.90;;;;;;5016995;28;20021;-78
2023/10/20 00:46:58;;;;;;;22.50;12.68;;;13.20;99.90;;;;;;5017067;28;20505;-78
2023/10/20 00:49:24;;;;;;;22.95;12.15;;;13.20;99.90;;;;;;5034609;28;20023;-78
2023/10/20 00:51:50;;;;;;;23.25;11.75;;;13.20;99.90;;;;;;5034037;28;20105;-78
2023/10/20 00:54:16;;;;;;;129.93;17.95;;;13.20;99.90;;;;;;5016406;28;20036;-78
2023/10/20 00:56:41;;;;;;;20.60;11.95;;;13.20;99.90;;;;;;5017630;28;20116;-78
2023/10/20 00:59:11;;;;;;;28.55;11.60;;;13.10;99.90;;;;;;5017377;28;20060;-77
2023/10/20 01:01:37;;;;;;;32.65;12.70;;;13.10;99.90;;;;;;5035401;28;20105;-78
2023/10/20 01:04:03;;;;;;;24.67;12.60;;;13.20;99.90;;;;;;5034857;28;20425;-78
2023/10/20 01:06:31;;;;;;;25.00;13.13;;;13.20;99.90;;;;;;5034308;28;20378;-78
2023/10/20 01:08:57;;;;;;;22.52;12.05;;;13.20;99.90;;;;;;5034832;28;20064;-78
2023/10/20 01:11:22;;;;;;;238.27;24.17;;;13.20;99.90;;;;;;5034171;28;20421;-78
2023/10/20 01:13:48;;;;;;;102.22;14.82;;;13.10;99.90;;;;;;5034294;28;20029;-77
2023/10/20 01:16:15;;;;;;;32.28;12.73;;;13.10;99.90;;;;;;5035360;28;20029;-77
2023/10/20 01:18:40;;;;;;;32.20;13.40;;;13.10;99.90;;;;;;5016429;28;20021;-78
2023/10/20 01:21:06;;;;;;;21.83;12.15;;;13.10;99.90;;;;;;5016635;28;20042;-78
2023/10/20 01:23:32;;;;;;;28.92;13.45;;;13.10;99.90;;;;;;5016434;28;20028;-78
2023/10/20 01:25:57;;;;;;;24.20;12.77;;;13.10;99.90;;;;;;5016358;28;20047;-78
2023/10/20 01:28:23;;;;;;;30.85;14.10;;;13.20;99.90;;;;;;5037634;28;20026;-78
2023/10/20 01:30:49;;;;;;;24.58;14.13;;;13.20;99.90;;;;;;5016653;28;20046;-78
2023/10/20 01:33:15;;;;;;;26.95;15.20;;;13.20;99.90;;;;;;5017183;28;20022;-78
2023/10/20 01:35:42;;;;;;;45.17;22.52;;;13.20;99.90;;;;;;5016382;28;20407;-77
2023/10/20 01:38:08;;;;;;;30.25;14.90;;;13.20;99.90;;;;;;5017821;28;20041;-78
2023/10/20 01:40:33;;;;;;;25.35;13.05;;;13.20;99.90;;;;;;5020681;28;20081;-78
2023/10/20 01:42:59;;;;;;;28.83;13.02;;;13.10;99.90;;;;;;5022271;28;20041;-78
2023/10/20 01:45:28;;;;;;;26.52;13.13;;;13.20;99.90;;;;;;5020178;28;20595;-78
2023/10/20 01:47:55;;;;;;;190.98;21.27;;;13.20;99.90;;;;;;5021724;28;20036;-78
2023/10/20 01:50:21;;;;;;;17.85;11.88;;;13.30;99.90;;;;;;5024264;28;20029;-78
2023/10/20 01:52:46;;;;;;;20.92;13.13;;;13.20;99.90;;;;;;5020065;28;20057;-78
2023/10/20 01:55:12;;;;;;;30.83;12.63;;;13.20;99.90;;;;;;5023198;28;20033;-78
2023/10/20 01:57:38;;;;;;;160.77;21.13;;;13.30;99.90;;;;;;5020413;28;20045;-78
2023/10/20 02:00:08;;;;;;;50.97;13.63;;;13.20;99.90;;;;;;5019829;28;20386;-78
2023/10/20 02:02:33;;;;;;;43.25;12.82;;;13.20;99.90;;;;;;5019005;28;20045;-79
2023/10/20 02:04:59;;;;;;;65.00;14.52;;;13.20;99.90;;;;;;5020348;28;20030;-79
2023/10/20 02:07:25;;;;;;;21.95;11.85;;;13.20;99.90;;;;;;5019926;28;20031;-80
2023/10/20 02:09:51;;;;;;;24.35;12.48;;;13.10;99.90;;;;;;5022587;28;20021;-78
2023/10/20 02:12:16;;;;;;;75.53;14.68;;;13.20;99.90;;;;;;5026181;28;20050;-80
2023/10/20 02:14:44;;;;;;;50.15;15.57;;;13.20;99.90;;;;;;5025967;28;20018;-78
2023/10/20 02:17:13;;;;;;;27.20;13.38;;;13.10;99.90;;;;;;5021135;28;20057;-79
2023/10/20 02:19:38;;;;;;;25.23;14.30;;;13.20;99.90;;;;;;5020379;28;20076;-77
2023/10/20 02:22:04;;;;;;;36.30;15.38;;;13.20;99.90;;;;;;5021526;28;20034;-78
2023/10/20 02:24:30;;;;;;;26.63;14.40;;;13.30;99.90;;;;;;5021548;28;20493;-80
2023/10/20 02:26:56;;;;;;;104.10;18.63;;;13.30;99.90;;;;;;5019739;28;20026;-78
2023/10/20 02:29:21;;;;;;;40.53;14.32;;;13.20;99.90;;;;;;5020113;28;20076;-78
2023/10/20 02:31:47;;;;;;;134.25;19.80;;;13.30;99.90;;;;;;5022653;28;20065;-78
2023/10/20 02:34:13;;;;;;;95.82;17.42;;;13.30;99.90;;;;;;5022784;28;20030;-78
2023/10/20 02:36:39;;;;;;;62.60;15.35;;;13.30;99.90;;;;;;5024617;28;20203;-78
2023/10/20 02:39:04;;;;;;;236.13;22.73;;;13.30;99.90;;;;;;5020320;28;20030;-78
2023/10/20 02:41:30;;;;;;;73.22;15.88;;;13.40;99.90;;;;;;5022771;28;20038;-79
2023/10/20 02:43:56;;;;;;;29.65;13.77;;;13.40;99.90;;;;;;5022024;28;20029;-78
2023/10/20 02:46:21;;;;;;;27.05;13.57;;;13.30;99.90;;;;;;5020265;28;20026;-78
2023/10/20 02:48:47;;;;;;;43.10;15.55;;;13.30;99.90;;;;;;5020342;28;20088;-78
2023/10/20 02:51:14;;;;;;;56.88;16.00;;;13.40;99.90;;;;;;5015774;28;20026;-78
2023/10/20 02:53:41;;;;;;;52.13;15.65;;;13.30;99.90;;;;;;5017538;28;20034;-79
2023/10/20 02:56:14;;;;;;;42.97;14.88;;;13.30;99.90;;;;;;5017163;28;20421;-78
2023/10/20 02:58:44;;;;;;;28.17;12.95;;;13.20;99.90;;;;;;5017986;28;20022;-78
2023/10/20 03:01:13;;;;;;;82.72;17.20;;;13.20;99.90;;;;;;5016908;28;20025;-78
2023/10/20 03:03:39;;;;;;;;;;;13.30;99.90;;;;;;5021333;28;20038;-78
2023/10/20 03:06:06;;;;;;;73.90;17.25;;;13.30;99.90;;;;;;5020402;28;19996;-78
2023/10/20 03:08:34;;;;;;;177.55;21.70;;;13.30;99.90;;;;;;5019727;28;20049;-78
2023/10/20 03:11:00;;;;;;;40.50;15.23;;;13.30;99.90;;;;;;5018729;28;20060;-78
2023/10/20 03:13:26;;;;;;;43.85;15.52;;;13.40;99.90;;;;;;5019711;28;20375;-78
2023/10/20 03:15:53;;;;;;;54.10;16.80;;;13.40;99.90;;;;;;5017214;28;20516;-78
2023/10/20 03:18:19;;;;;;;220.93;25.23;;;13.40;99.90;;;;;;5017637;28;20033;-79
2023/10/20 03:20:47;;;;;;;74.63;19.67;;;13.40;99.90;;;;;;5017215;28;20026;-78
2023/10/20 03:23:14;;;;;;;50.40;16.98;;;13.40;99.90;;;;;;5021052;28;20034;-78
2023/10/20 03:25:40;;;;;;;73.18;18.00;;;13.40;99.90;;;;;;5016682;28;20036;-78
2023/10/20 03:28:07;;;;;;;57.95;16.67;;;13.40;99.90;;;;;;5017405;28;20393;-78
2023/10/20 03:30:40;;;;;;;61.60;18.42;;;13.30;99.90;;;;;;5032531;28;20049;-78
2023/10/20 03:33:07;;;;;;;235.63;24.40;;;13.40;99.90;;;;;;5021052;28;20024;-79
2023/10/20 03:35:33;;;;;;;249.20;24.60;;;13.40;99.90;;;;;;5022632;28;20562;-79
2023/10/20 03:38:00;;;;;;;111.00;18.90;;;13.40;99.90;;;;;;5026999;28;20021;-78
2023/10/20 03:40:42;;;;;;;167.30;24.25;;;13.40;99.90;;;;;;5030967;28;20022;-82
2023/10/20 03:43:08;;;;;;;188.32;21.02;;;13.40;99.90;;;;;;5025671;28;20101;-79
2023/10/20 03:45:48;;;;;;;143.15;21.85;;;13.30;99.90;;;;;;5040509;28;20048;-79
2023/10/20 03:48:13;;;;;;;;;;;13.30;99.90;;;;;;5041022;28;20036;-79
2023/10/20 03:50:44;;;;;;;211.43;25.50;;;13.30;99.90;;;;;;5040803;28;19909;-79
2023/10/20 03:53:15;;;;;;;241.57;28.95;;;13.40;99.90;;;;;;5041283;28;20032;-78
2023/10/20 03:55:41;;;;;;;224.13;25.40;;;13.30;99.90;;;;;;5043400;28;20049;-79
2023/10/20 03:58:06;;;;;;;234.18;23.17;;;13.30;99.90;;;;;;5019499;28;20025;-78
2023/10/20 04:00:36;;;;;;;140.50;20.50;;;13.30;99.90;;;;;;5019965;28;20493;-78
2023/10/20 04:03:02;;;;;;;489.80;38.40;;;13.30;99.90;;;;;;5018369;28;20037;-78
2023/10/20 04:05:28;;;;;;;188.23;23.73;;;13.30;99.90;;;;;;5020715;28;20424;-79
2023/10/20 04:07:54;;;;;;;321.10;29.58;;;13.40;99.90;;;;;;5038763;28;20104;-78
2023/10/20 04:10:20;;;;;;;232.82;24.83;;;13.40;99.90;;;;;;5037931;28;20029;-78
2023/10/20 04:12:47;;;;;;;94.55;17.55;;;13.30;99.90;;;;;;5019409;28;20401;-78
2023/10/20 04:15:16;;;;;;;251.98;29.17;;;13.40;99.90;;;;;;5017916;28;20120;-78
2023/10/20 04:17:52;;;;;;;163.50;23.80;;;13.30;99.90;;;;;;5036681;28;20466;-78
2023/10/20 04:20:23;;;;;;;287.10;28.90;;;13.40;99.90;;;;;;5019364;28;20033;-80
2023/10/20 04:22:49;;;;;;;310.25;30.27;;;13.40;99.90;;;;;;5020320;28;20124;-79
2023/10/20 04:25:19;;;;;;;206.77;27.23;;;13.50;99.90;;;;;;5038598;28;20053;-79
2023/10/20 04:27:49;;;;;;;126.28;20.13;;;13.50;99.90;;;;;;5016049;28;20052;-80
2023/10/20 05:00:31;;;;;;;189.50;25.00;;;13.40;99.90;;;;;;5036799;28;20085;-80
2023/10/20 05:10:37;;;;;;;243.80;27.75;;;13.30;99.90;;;;;;5043271;28;20060;-80
2023/10/20 05:13:03;;;;;;;121.70;21.13;;;13.30;99.90;;;;;;5035892;28;20002;-83
2023/10/20 05:15:38;;;;;;;80.75;19.45;;;13.30;99.90;;;;;;5041261;28;20029;-81
2023/10/20 05:18:11;;;;;;;65.70;21.08;;;13.30;99.90;;;;;;5050213;28;20017;-80
2023/10/20 05:20:37;;;;;;;65.47;22.40;;;13.30;99.90;;;;;;5025930;28;20393;-78
2023/10/20 05:23:04;;;;;;;62.70;19.80;;;13.30;99.90;;;;;;5021790;28;20038;-79
2023/10/20 05:25:29;;;;;;;49.38;18.30;;;13.40;99.90;;;;;;5039004;28;20482;-79
2023/10/20 05:27:55;;;;;;;41.22;17.95;;;13.40;99.90;;;;;;5023084;28;20033;-80
2023/10/20 05:30:21;;;;;;;42.92;17.85;;;13.40;99.90;;;;;;5023089;28;20048;-78
2023/10/20 05:32:48;;;;;;;40.28;16.77;;;13.30;99.90;;;;;;5039047;28;20501;-78
2023/10/20 05:35:13;;;;;;;35.40;15.27;;;13.30;99.90;;;;;;5038427;28;20104;-79
2023/10/20 05:37:39;;;;;;;38.03;15.10;;;13.30;99.90;;;;;;5043058;28;20118;-79
2023/10/20 05:40:05;;;;;;;34.78;15.18;;;13.40;99.90;;;;;;5036806;28;20025;-80
2023/10/20 05:42:31;;;;;;;36.22;14.98;;;13.30;99.90;;;;;;5053951;28;20025;-79
2023/10/20 05:45:09;;;;;;;32.35;15.07;;;13.30;99.90;;;;;;5039970;28;20041;-79
2023/10/20 05:47:36;;;;;;;31.70;15.35;;;13.40;99.90;;;;;;5030361;28;20026;-80
2023/10/20 05:50:02;;;;;;;26.33;13.75;;;13.40;99.90;;;;;;5057439;28;20021;-81
2023/10/20 05:52:28;;;;;;;24.73;12.48;;;13.40;99.90;;;;;;5052253;28;20026;-78
2023/10/20 05:54:56;;;;;;;22.35;12.45;;;13.40;99.90;;;;;;5050010;28;20005;-78
2023/10/20 05:57:25;;;;;;;22.88;11.57;;;13.40;99.90;;;;;;5058555;28;20041;-78
2023/10/20 05:59:50;;;;;;;21.60;10.85;;;13.30;99.90;;;;;;5039924;28;20029;-79
2023/10/20 06:02:16;;;;;;;28.85;13.73;;;13.30;99.90;;;;;;5060023;28;20026;-79
2023/10/20 06:04:42;;;;;;;25.95;13.20;;;13.40;99.90;;;;;;5040214;28;20051;-78
2023/10/20 06:07:07;;;;;;;27.48;12.95;;;13.30;99.90;;;;;;5041117;28;20021;-79
2023/10/20 06:09:33;;;;;;;27.02;11.95;;;13.40;99.90;;;;;;5040806;28;20405;-80
2023/10/20 06:12:00;;;;;;;23.17;10.27;;;13.30;99.90;;;;;;5038221;28;20045;-81
2023/10/20 06:14:26;;;;;;;25.33;12.77;;;13.30;99.90;;;;;;5036374;28;20033;-80
2023/10/20 06:16:52;;;;;;;27.85;12.68;;;13.30;99.90;;;;;;5034679;28;20034;-80
2023/10/20 06:19:17;;;;;;;30.60;13.27;;;13.30;99.90;;;;;;5034734;28;20025;-80
2023/10/20 06:21:43;;;;;;;26.40;12.70;;;13.30;99.90;;;;;;5046573;28;20083;-78
2023/10/20 06:24:09;;;;;;;29.38;13.43;;;13.30;99.90;;;;;;5035049;28;20012;-78
2023/10/20 06:26:35;;;;;;;24.77;12.43;;;13.40;99.90;;;;;;5041617;28;20053;-79
2023/10/20 06:29:02;;;;;;;30.58;13.43;;;13.30;99.90;;;;;;5023042;28;20475;-78
2023/10/20 06:31:38;;;;;;;25.27;13.18;;;13.30;99.90;;;;;;5022966;28;20033;-79
2023/10/20 06:34:19;;;;;;;22.77;11.77;;;13.40;99.90;;;;;;5025221;28;20124;-80
2023/10/20 06:36:48;;;;;;;23.00;12.43;;;13.40;99.90;;;;;;5027722;28;20087;-78
2023/10/20 06:39:14;;;;;;;26.30;11.68;;;13.40;99.90;;;;;;5039140;28;20017;-77
2023/10/20 06:41:40;;;;;;;26.75;12.02;;;13.40;99.90;;;;;;5038583;28;20030;-77
2023/10/20 06:44:06;;;;;;;23.85;12.23;;;13.50;99.90;;;;;;5036886;28;20064;-78
2023/10/20 06:46:31;;;;;;;22.23;11.82;;;13.50;99.90;;;;;;5021740;28;20029;-78
2023/10/20 06:48:57;;;;;;;23.08;11.73;;;13.50;99.90;;;;;;5021009;28;20486;-79
2023/10/20 06:51:25;;;;;;;22.15;12.05;;;13.50;99.90;;;;;;5022152;28;20033;-78
2023/10/20 06:53:50;;;;;;;24.88;12.50;;;13.50;99.90;;;;;;5040492;28;20018;-78
2023/10/20 06:56:16;;;;;;;22.35;11.75;;;13.50;99.90;;;;;;5022414;28;20033;-78
2023/10/20 06:58:42;;;;;;;21.40;10.38;;;13.50;99.90;;;;;;5040583;28;20540;-79
2023/10/20 07:01:07;;;;;;;21.33;10.90;;;13.60;99.90;;;;;;5022572;28;20032;-78
2023/10/20 07:03:34;;;;;;;22.02;10.93;;;13.60;99.90;;;;;;5024540;28;20034;-78
2023/10/20 07:06:11;;;;;;;23.42;12.27;;;13.70;99.90;;;;;;5021375;28;20031;-78
2023/10/20 07:08:36;;;;;;;17.50;9.02;;;13.70;99.90;;;;;;5020043;28;20115;-78
2023/10/20 07:11:05;;;;;;;22.63;11.05;;;13.80;99.90;;;;;;5037053;28;20445;-78
2023/10/20 07:13:31;;;;;;;25.33;9.97;;;13.80;99.90;;;;;;5020153;28;20033;-78
2023/10/20 07:15:57;;;;;;;20.23;10.48;;;13.80;99.90;;;;;;5039082;28;20052;-78
2023/10/20 07:18:23;;;;;;;17.95;10.32;;;13.90;99.90;;;;;;5038588;28;20493;-78
2023/10/20 07:20:49;;;;;;;14.70;8.95;;;13.90;99.90;;;;;;5038031;28;20030;-78
2023/10/20 07:23:16;;;;;;;14.43;9.25;;;13.90;99.90;;;;;;5036737;28;20438;-78
2023/10/20 07:25:42;;;;;;;22.08;9.95;;;13.90;99.90;;;;;;5018338;28;20099;-78
2023/10/20 07:28:08;;;;;;;15.55;9.95;;;13.90;99.90;;;;;;5036296;28;20025;-79
2023/10/20 07:30:35;;;;;;;20.45;10.07;;;13.90;99.90;;;;;;5019203;28;20052;-78
2023/10/20 07:33:03;;;;;;;12.85;7.95;;;14.00;99.90;;;;;;5019416;28;20029;-79
2023/10/20 07:35:29;;;;;;;15.73;7.50;;;14.10;99.90;;;;;;5019862;28;20025;-78
2023/10/20 07:37:54;;;;;;;14.40;7.95;;;14.10;99.90;;;;;;5036352;28;20482;-78
2023/10/20 07:40:20;;;;;;;13.50;7.28;;;14.10;99.90;;;;;;5037664;28;20029;-79
2023/10/20 07:42:46;;;;;;;11.05;5.80;;;14.20;99.90;;;;;;5019147;28;20041;-79
2023/10/20 07:45:13;;;;;;;8.63;6.05;;;14.20;99.90;;;;;;5020112;28;20386;-78
2023/10/20 07:47:39;;;;;;;14.13;7.80;;;14.20;99.90;;;;;;5019352;28;20029;-79
2023/10/20 07:50:06;;;;;;;15.10;8.40;;;14.20;99.90;;;;;;5020024;28;20459;-78
2023/10/20 07:52:32;;;;;;;13.90;8.68;;;14.30;99.90;;;;;;5019317;28;20378;-79
2023/10/20 07:54:57;;;;;;;15.55;8.25;;;14.40;99.90;;;;;;5037217;28;20030;-79
2023/10/20 07:57:24;;;;;;;13.02;7.28;;;14.40;99.90;;;;;;5020060;28;20033;-78
2023/10/20 07:59:50;;;;;;;12.13;7.50;;;14.40;99.90;;;;;;5037846;28;20017;-78
2023/10/20 08:02:17;;;;;;;13.80;7.25;;;14.40;99.90;;;;;;5019805;28;20124;-78
2023/10/20 08:04:42;;;;;;;12.13;7.07;;;14.30;99.90;;;;;;5019343;28;20024;-78
2023/10/20 08:07:09;;;;;;;9.70;6.88;;;14.30;99.90;;;;;;5035199;28;20021;-78
2023/10/20 08:09:36;;;;;;;10.30;6.53;;;14.20;99.90;;;;;;5037464;28;20108;-79
2023/10/20 08:12:02;;;;;;;11.15;7.18;;;14.40;99.90;;;;;;5020271;28;20089;-79
2023/10/20 08:14:28;;;;;;;16.50;8.60;;;14.30;99.90;;;;;;5021950;28;20494;-78
2023/10/20 08:16:54;;;;;;;16.95;8.93;;;14.40;99.90;;;;;;5023518;28;20494;-78
2023/10/20 08:19:20;;;;;;;14.05;8.25;;;14.20;99.90;;;;;;5037886;28;20132;-79
2023/10/20 08:21:46;;;;;;;17.83;9.70;;;14.30;99.90;;;;;;5018035;28;20505;-79
2023/10/20 08:24:12;;;;;;;17.08;8.95;;;14.30;99.90;;;;;;5035938;28;20036;-78
2023/10/20 08:26:39;;;;;;;15.57;9.18;;;14.30;99.90;;;;;;5019010;28;20453;-78
2023/10/20 08:29:11;;;;;;;15.05;9.60;;;14.30;99.90;;;;;;5017688;28;20049;-79
2023/10/20 08:31:38;;;;;;;17.42;9.10;;;14.30;99.90;;;;;;5018260;28;20044;-79
2023/10/20 08:34:03;;;;;;;25.80;10.77;;;14.40;99.90;;;;;;5035955;28;20105;-79
2023/10/20 08:36:29;;;;;;;14.70;9.40;;;14.30;99.90;;;;;;5035932;28;20079;-78
2023/10/20 08:38:55;;;;;;;13.45;8.63;;;14.40;99.90;;;;;;5019352;28;20401;-79
2023/10/20 08:41:22;;;;;;;14.55;8.40;;;14.40;99.90;;;;;;5018923;28;20124;-79
2023/10/20 08:43:52;;;;;;;12.63;9.05;;;14.40;99.90;;;;;;5036023;28;20026;-78
2023/10/20 08:46:17;;;;;;;;;;;14.50;99.90;;;;;;5019559;28;20026;-78
2023/10/20 08:48:44;;;;;;;10.40;6.45;;;14.40;99.90;;;;;;5017669;28;20298;-78
2023/10/20 08:51:14;;;;;;;8.73;5.88;;;14.50;99.90;;;;;;5037430;28;20017;-80
2023/10/20 08:53:41;;;;;;;9.82;6.20;;;14.60;99.90;;;;;;5037016;28;20075;-78
2023/10/20 08:56:09;;;;;;;9.80;7.35;;;14.60;99.90;;;;;;5019764;28;20104;-79
2023/10/20 08:58:35;;;;;;;9.27;6.70;;;14.70;99.90;;;;;;5018035;28;20025;-78
2023/10/20 09:01:02;;;;;;;10.98;6.68;;;14.70;99.90;;;;;;5018866;28;20470;-78
2023/10/20 09:03:37;;;;;;;9.43;6.35;;;14.60;99.90;;;;;;5036322;28;20393;-78
2023/10/20 09:06:07;;;;;;;9.93;6.32;;;14.60;99.90;;;;;;5037506;28;20489;-78
2023/10/20 09:08:33;;;;;;;10.63;7.35;;;14.60;99.90;;;;;;5019070;28;20037;-78
2023/10/20 09:10:59;;;;;;;7.90;6.18;;;14.60;99.90;;;;;;5019801;28;20057;-78
2023/10/20 09:13:37;;;;;;;6.70;4.93;;;14.60;99.90;;;;;;5037289;28;20029;-79
2023/10/20 09:16:13;;;;;;;7.72;4.47;;;14.70;99.90;;;;;;5034912;28;20051;-79
2023/10/20 09:18:42;;;;;;;6.53;4.03;;;14.70;99.90;;;;;;5035002;28;20104;-79
2023/10/20 09:21:08;;;;;;;6.93;4.05;;;14.70;99.90;;;;;;5033769;28;20425;-79
2023/10/20 09:23:34;;;;;;;3.65;2.40;;;14.70;99.90;;;;;;5017042;28;20102;-78
2023/10/20 09:26:02;;;;;;;2.38;2.00;;;14.70;99.90;;;;;;5017540;28;20033;-79
2023/10/20 09:28:28;;;;;;;0.73;0.73;;;14.70;99.90;;;;;;5018193;28;20025;-79
2023/10/20 09:30:55;;;;;;;0.75;0.70;;;14.70;99.90;;;;;;5019438;28;20048;-79
2023/10/20 09:33:21;;;;;;;0.40;0.40;;;14.60;99.90;;;;;;5019109;28;20025;-79
2023/10/20 09:35:47;;;;;;;0.43;0.30;;;14.60;99.90;;;;;;5018489;28;20024;-79
2023/10/20 09:38:15;;;;;;;0.47;0.30;;;14.60;99.90;;;;;;5017983;28;20025;-78
2023/10/20 09:40:42;;;;;;;0.52;0.30;;;14.60;99.90;;;;;;5018854;28;20025;-80
2023/10/20 09:43:28;;;;;;;0.10;0.10;;;14.50;99.90;;;;;;5018257;28;20033;-79
2023/10/20 09:46:26;;;;;;;0.10;0.00;;;14.30;99.90;;;;;;5036954;28;20026;-79
2023/10/20 09:48:55;;;;;;;0.10;0.10;;;14.20;99.90;;;;;;5001743;28;20030;-78
2023/10/20 09:51:21;;;;;;;0.13;0.10;;;14.20;99.90;;;;;;5016900;28;20026;-78
2023/10/20 09:53:48;;;;;;;0.08;0.08;;;14.10;99.90;;;;;;5017690;28;20449;-78
2023/10/20 09:56:15;;;;;;;0.20;0.20;;;14.10;99.90;;;;;;5033565;28;20095;-78
2023/10/20 09:58:41;;;;;;;0.05;0.05;;;14.10;99.90;;;;;;5033937;28;20029;-78
2023/10/20 10:01:07;;;;;;;0.10;0.10;;;14.10;99.90;;;;;;5020536;28;20021;-78
2023/10/20 10:03:40;;;;;;;0.17;0.15;;;14.00;99.90;;;;;;5022674;28;20417;-78
2023/10/20 10:06:12;;;;;;;0.10;0.10;;;14.00;99.90;;;;;;5021095;28;20017;-78
2023/10/20 10:08:39;;;;;;;0.50;0.28;;;14.10;99.90;;;;;;5038385;28;20017;-78
2023/10/20 10:11:28;;;;;;;0.40;0.10;;;14.10;99.90;;;;;;5020980;28;20057;-79
2023/10/20 10:14:07;;;;;;;0.10;0.10;;;14.10;99.90;;;;;;5021276;28;20033;-78
2023/10/20 10:16:48;;;;;;;0.28;0.20;;;14.30;99.90;;;;;;5021317;28;20021;-80
2023/10/20 10:19:17;;;;;;;1.90;0.70;;;14.30;99.90;;;;;;5021350;28;20044;-79
2023/10/20 10:21:50;;;;;;;0.68;0.10;;;14.40;99.90;;;;;;5003982;28;20033;-79
2023/10/20 10:24:23;;;;;;;0.10;0.10;;;14.40;99.90;;;;;;5038132;28;20504;-79
2023/10/20 10:26:56;;;;;;;0.20;0.20;;;14.40;99.90;;;;;;5020565;28;20049;-81
2023/10/20 10:29:48;;;;;;;0.45;0.30;;;14.50;99.90;;;;;;5019590;28;20164;-78
2023/10/20 10:32:14;;;;;;;0.50;0.32;;;14.60;99.90;;;;;;5037926;28;20389;-78
2023/10/20 10:34:43;;;;;;;0.17;0.17;;;14.60;99.90;;;;;;5020053;28;20485;-78
2023/10/20 10:37:09;;;;;;;0.52;0.40;;;14.60;99.90;;;;;;5019840;28;20021;-78
2023/10/20 10:39:35;;;;;;;0.10;0.10;;;14.50;99.90;;;;;;5019158;28;20091;-78
2023/10/20 10:42:03;;;;;;;0.10;0.10;;;14.50;99.90;;;;;;5038991;28;20034;-78
2023/10/20 10:44:36;;;;;;;7.15;0.40;;;14.50;99.90;;;;;;5019777;28;20083;-78
2023/10/20 10:47:16;;;;;;;0.20;0.10;;;14.50;99.90;;;;;;5019917;28;20075;-78
2023/10/20 10:49:46;;;;;;;1.55;0.10;;;14.50;99.90;;;;;;5019750;28;20033;-78
2023/10/20 10:52:13;;;;;;;0.75;0.47;;;14.50;99.90;;;;;;5019826;28;20029;-78
2023/10/20 10:54:39;;;;;;;1.13;0.47;;;14.50;99.90;;;;;;5019607;28;20367;-78
2023/10/20 10:57:05;;;;;;;0.15;0.15;;;14.50;99.90;;;;;;5019556;28;20493;-79
2023/10/20 10:59:32;;;;;;;0.15;0.15;;;14.40;99.90;;;;;;5019534;28;20021;-78
2023/10/20 11:02:00;;;;;;;0.10;0.10;;;14.40;99.90;;;;;;5019320;28;20564;-78
2023/10/20 11:04:26;;;;;;;0.00;0.00;;;14.30;99.90;;;;;;5037224;28;20429;-79
2023/10/20 11:06:52;;;;;;;0.28;0.10;;;14.30;99.90;;;;;;5037213;28;20026;-80
2023/10/20 11:09:19;;;;;;;1.95;0.43;;;14.30;99.90;;;;;;5037294;28;20079;-78
2023/10/20 11:11:48;;;;;;;0.00;0.00;;;14.20;99.90;;;;;;5021030;28;20056;-78
2023/10/20 11:14:17;;;;;;;0.20;0.10;;;14.20;99.90;;;;;;5021878;28;20520;-78
2023/10/20 11:16:43;;;;;;;0.10;0.10;;;14.20;99.90;;;;;;5040324;28;20056;-78
2023/10/20 11:19:13;;;;;;;0.10;0.10;;;14.20;99.90;;;;;;5022182;28;20021;-78
2023/10/20 11:21:48;;;;;;;;;;;14.20;99.90;;;;;;5023809;28;20037;-79
2023/10/20 11:24:25;;;;;;;0.10;0.10;;;14.20;99.90;;;;;;5023507;28;19905;-79
2023/10/20 11:27:01;;;;;;;0.00;0.00;;;14.20;99.90;;;;;;5024287;28;20032;-78
2023/10/20 11:29:32;;;;;;;0.08;0.08;;;14.10;99.90;;;;;;5019283;28;20041;-78
2023/10/20 11:32:00;;;;;;;0.10;0.10;;;14.10;99.90;;;;;;5019265;28;20025;-79
2023/10/20 11:34:27;;;;;;;0.10;0.10;;;14.10;99.90;;;;;;5019214;28;20043;-78
2023/10/20 11:36:53;;;;;;;0.00;0.00;;;14.00;99.90;;;;;;5019055;28;20099;-78
2023/10/20 11:39:24;;;;;;;0.10;0.03;;;14.00;99.90;;;;;;5037269;28;20029;-78
2023/10/20 11:41:51;;;;;;;0.57;0.10;;;14.00;99.90;;;;;;5038156;28;20112;-78
2023/10/20 11:44:16;;;;;;;1.38;0.30;;;14.10;99.90;;;;;;5020982;28;20057;-78
2023/10/20 11:46:43;;;;;;;0.17;0.00;;;14.10;99.90;;;;;;5037573;28;20022;-76
2023/10/20 11:49:10;;;;;;;0.10;0.10;;;14.10;99.90;;;;;;5021016;28;20033;-78
2023/10/20 11:51:37;;;;;;;0.10;0.10;;;14.10;99.90;;;;;;5038276;28;20022;-78
2023/10/20 11:54:03;;;;;;;0.00;0.00;;;14.10;99.90;;;;;;5022153;28;20064;-78
2023/10/20 11:56:29;;;;;;;0.00;0.00;;;14.10;99.90;;;;;;5020112;28;20053;-78
2023/10/20 11:58:54;;;;;;;0.03;0.00;;;14.00;99.90;;;;;;5019104;28;20359;-78
2023/10/20 12:01:20;;;;;;;0.13;0.10;;;14.00;99.90;;;;;;5035932;28;20109;-78
2023/10/20 12:03:46;;;;;;;0.30;0.20;;;14.00;99.90;;;;;;5019604;28;20096;-79
2023/10/20 12:06:11;;;;;;;0.25;0.20;;;13.90;99.90;;;;;;5042842;28;20021;-79
2023/10/20 12:08:37;;;;;;;0.15;0.15;;;13.90;99.90;;;;;;5025114;28;20055;-79
2023/10/20 12:11:03;;;;;;;0.13;0.10;;;13.80;99.90;;;;;;5032810;28;20018;-79
2023/10/20 12:13:28;;;;;;;0.10;0.10;;;13.80;99.90;;;;;;5032047;28;20103;-78
2023/10/20 12:15:54;;;;;;;0.20;0.20;;;13.90;99.90;;;;;;5027325;28;20048;-78
2023/10/20 12:18:20;;;;;;;0.45;0.10;;;13.90;99.90;;;;;;5050158;28;20377;-79
2023/10/20 12:20:47;;;;;;;1.17;0.30;;;14.00;99.90;;;;;;5027764;28;20036;-78
2023/10/20 12:23:13;;;;;;;0.22;0.10;;;14.00;99.90;;;;;;5038886;28;20052;-78
2023/10/20 12:25:38;;;;;;;0.65;0.43;;;14.10;99.90;;;;;;5041761;28;20370;-78
2023/10/20 12:28:06;;;;;;;0.70;0.10;;;14.10;99.90;;;;;;5042621;28;20026;-78
2023/10/20 12:30:32;;;;;;;0.10;0.10;;;14.10;99.90;;;;;;5020328;28;20045;-77
2023/10/20 12:32:59;;;;;;;2.38;0.10;;;14.10;99.90;;;;;;5022667;28;20033;-79
2023/10/20 12:35:25;;;;;;;1.67;0.75;;;14.20;99.90;;;;;;5020785;28;20030;-77
2023/10/20 12:37:50;;;;;;;0.90;0.60;;;14.20;99.90;;;;;;5019217;28;20372;-78
2023/10/20 12:40:16;;;;;;;0.20;0.20;;;14.20;99.90;;;;;;5020984;28;20387;-79
2023/10/20 12:42:43;;;;;;;1.17;0.15;;;14.30;99.90;;;;;;5018359;28;20038;-78
2023/10/20 12:45:09;;;;;;;0.03;0.03;;;14.20;99.90;;;;;;5019408;28;20061;-78
2023/10/20 12:47:38;;;;;;;0.10;0.10;;;14.30;99.90;;;;;;5018070;28;20034;-78
2023/10/20 12:50:06;;;;;;;0.32;0.32;;;14.30;99.90;;;;;;5019388;28;20470;-79
2023/10/20 12:52:32;;;;;;;0.70;0.40;;;14.40;99.90;;;;;;5018688;28;20061;-77
2023/10/20 12:54:57;;;;;;;0.82;0.68;;;14.40;99.90;;;;;;5017233;28;20550;-78
2023/10/20 12:57:23;;;;;;;2.17;0.40;;;14.40;99.90;;;;;;5022326;28;20057;-78
2023/10/20 12:59:49;;;;;;;0.20;0.20;;;14.40;99.90;;;;;;5023527;28;20022;-79
2023/10/20 13:02:15;;;;;;;0.95;0.20;;;14.40;99.90;;;;;;5019120;28;20175;-76
2023/10/20 13:04:41;;;;;;;0.60;0.40;;;14.50;99.90;;;;;;5020045;28;20025;-78
2023/10/20 13:07:07;;;;;;;0.50;0.45;;;14.50;99.90;;;;;;5023217;28;20026;-78
2023/10/20 13:09:33;;;;;;;0.10;0.10;;;14.50;99.90;;;;;;5022961;28;20022;-78
2023/10/20 13:11:59;;;;;;;2.10;0.30;;;14.40;99.90;;;;;;5020664;28;20022;-78
2023/10/20 13:14:25;;;;;;;0.57;0.40;;;14.40;99.90;;;;;;5015173;28;20022;-78